createdAt,value
2022-11-06T00:04:04.527Z,101107.38
2022-11-06T00:09:08.572Z,101099.19
2022-11-06T00:14:10.634Z,101098.84
2022-11-06T00:19:12.893Z,101102.09
2022-11-06T00:24:14.941Z,101103.00
2022-11-06T00:29:16.483Z,101103.13
2022-11-06T00:34:18.004Z,101109.81
2022-11-06T00:39:19.480Z,101104.88
2022-11-06T00:44:20.967Z,101095.56
2022-11-06T00:49:22.526Z,101103.94
2022-11-06T00:54:24.012Z,101105.47
2022-11-06T00:59:25.521Z,101119.50
2022-11-06T01:04:27.165Z,101120.72
2022-11-06T01:09:28.710Z,101116.63
2022-11-06T01:14:30.506Z,101123.50
2022-11-06T01:19:32.026Z,101105.84
2022-11-06T01:24:33.565Z,101099.75
2022-11-06T01:29:35.183Z,101098.13
2022-11-06T01:34:36.718Z,101095.56
2022-11-06T01:39:38.256Z,101097.53
2022-11-06T01:44:42.482Z,101087.63
2022-11-06T01:49:44.681Z,101079.38
2022-11-06T01:54:50.998Z,101065.78
2022-11-06T01:59:54.491Z,101065.59
2022-11-06T02:04:56.020Z,101047.81
2022-11-06T02:09:57.525Z,101044.03
2022-11-06T02:15:02.086Z,101046.16
2022-11-06T02:20:22.000Z,101044.06
2022-11-06T02:25:46.186Z,101054.97
2022-11-06T02:30:49.814Z,101037.41
2022-11-06T02:35:56.865Z,101034.88
2022-11-06T02:41:03.615Z,101045.81
2022-11-06T02:46:25.274Z,101052.00
2022-11-06T02:51:30.468Z,101036.53
2022-11-06T02:56:38.659Z,101027.22
2022-11-06T03:01:48.381Z,101024.28
2022-11-06T03:06:59.735Z,101032.78
2022-11-06T03:12:11.159Z,101033.69
2022-11-06T03:17:20.638Z,101023.09
2022-11-06T03:22:42.621Z,101032.78
2022-11-06T03:28:30.544Z,101001.94
2022-11-06T03:33:58.378Z,101004.25
2022-11-06T03:39:05.365Z,101008.78
2022-11-06T03:44:10.302Z,101032.38
2022-11-06T03:49:19.246Z,101031.97
2022-11-06T03:54:26.178Z,101049.09
2022-11-06T03:59:33.930Z,101031.97
2022-11-06T04:04:41.773Z,101032.38
2022-11-06T04:09:49.175Z,101034.31
2022-11-06T04:14:54.655Z,101043.78
2022-11-06T04:20:00.523Z,101029.47
2022-11-06T04:25:20.378Z,101021.97
2022-11-06T04:30:21.967Z,101030.16
2022-11-06T04:35:43.662Z,101022.56
2022-11-06T04:41:01.821Z,101018.66
2022-11-06T04:46:06.447Z,101006.59
2022-11-06T04:51:10.258Z,101002.81
2022-11-06T04:56:16.434Z,100976.63
2022-11-06T05:01:20.510Z,100979.06
2022-11-06T05:06:27.047Z,100958.25
2022-11-06T05:11:31.391Z,100957.69
2022-11-06T05:16:32.894Z,100944.63
2022-11-06T05:21:34.378Z,100948.06
2022-11-06T05:26:35.901Z,100935.38
2022-11-06T05:31:37.504Z,100931.28
2022-11-06T05:36:39.013Z,100915.00
2022-11-06T05:41:40.485Z,100921.16
2022-11-06T05:46:48.744Z,100914.00
2022-11-06T05:51:50.977Z,100907.81
2022-11-06T05:56:52.452Z,100888.94
2022-11-06T06:01:54.090Z,100886.16
2022-11-06T06:06:55.715Z,100881.13
2022-11-06T06:11:57.215Z,100870.81
2022-11-06T06:16:58.721Z,100871.28
2022-11-06T06:22:00.189Z,100867.09
2022-11-06T06:27:01.959Z,100865.66
2022-11-06T06:32:04.360Z,100848.84
2022-11-06T06:37:05.857Z,100854.47
2022-11-06T06:42:07.386Z,100866.72
2022-11-06T06:47:08.980Z,100875.72
2022-11-06T06:52:11.540Z,100874.69
2022-11-06T06:57:13.078Z,100888.75
2022-11-06T07:02:14.725Z,100887.13
2022-11-06T07:07:16.335Z,100891.34
2022-11-06T07:12:17.832Z,100910.69
2022-11-06T07:17:19.363Z,100890.19
2022-11-06T07:22:29.593Z,100885.50
2022-11-06T07:27:33.934Z,100882.59
2022-11-06T07:32:35.450Z,100883.88
2022-11-06T07:37:36.960Z,100879.09
2022-11-06T07:42:43.321Z,100888.22
2022-11-06T07:47:50.663Z,100883.84
2022-11-06T07:52:54.414Z,100886.28
2022-11-06T07:57:56.081Z,100876.81
2022-11-06T08:02:57.614Z,100877.31
2022-11-06T08:07:59.096Z,100885.69
2022-11-06T08:13:00.903Z,100869.75
2022-11-06T08:18:02.464Z,100857.75
2022-11-06T08:23:07.241Z,100849.47
2022-11-06T08:28:09.607Z,100856.53
2022-11-06T08:33:11.485Z,100835.97
2022-11-06T08:38:13.367Z,100841.13
2022-11-06T08:43:15.353Z,100838.69
2022-11-06T08:48:17.185Z,100837.06
2022-11-06T08:53:19.168Z,100836.59
2022-11-06T08:58:20.811Z,100830.03
2022-11-06T09:03:22.388Z,100822.28
2022-11-06T09:08:24.044Z,100819.06
2022-11-06T09:13:25.718Z,100822.50
2022-11-06T09:18:27.332Z,100805.00
2022-11-06T09:23:28.905Z,100794.53
2022-11-06T09:28:30.433Z,100791.56
2022-11-06T09:33:31.982Z,100779.28
2022-11-06T09:38:33.506Z,100770.75
2022-11-06T09:44:03.367Z,100765.63
2022-11-06T09:49:08.412Z,100763.13
2022-11-06T09:54:12.916Z,100755.25
2022-11-06T09:59:19.097Z,100756.25
2022-11-06T10:04:48.578Z,100753.03
2022-11-06T10:09:50.247Z,100748.81
2022-11-06T10:15:19.423Z,100739.75
2022-11-06T10:20:34.864Z,100716.97
2022-11-06T10:25:36.390Z,100710.00
2022-11-06T10:30:51.636Z,100727.25
2022-11-06T10:36:07.496Z,100734.72
2022-11-06T10:41:26.129Z,100710.56
2022-11-06T10:46:40.061Z,100695.03
2022-11-06T10:51:44.346Z,100695.63
2022-11-06T10:57:21.381Z,100674.44
2022-11-06T11:02:33.902Z,100652.34
2022-11-06T11:07:35.579Z,100658.34
2022-11-06T11:12:37.450Z,100655.56
2022-11-06T11:17:40.267Z,100647.47
2022-11-06T11:22:41.914Z,100632.91
2022-11-06T11:27:45.233Z,100611.41
2022-11-06T11:32:46.793Z,100602.59
2022-11-06T11:37:48.466Z,100596.31
2022-11-06T11:42:50.024Z,100595.03
2022-11-06T11:47:52.130Z,100578.38
2022-11-06T11:53:18.867Z,100562.44
2022-11-06T11:58:27.888Z,100543.22
2022-11-06T12:03:38.671Z,100542.28
2022-11-06T12:08:49.207Z,100537.88
2022-11-06T12:14:21.886Z,100518.97
2022-11-06T12:19:27.632Z,100494.50
2022-11-06T12:25:03.793Z,100480.13
2022-11-06T12:30:14.201Z,100471.25
2022-11-06T12:35:30.677Z,100480.13
2022-11-06T12:40:37.922Z,100483.63
2022-11-06T12:46:07.563Z,100450.84
2022-11-06T12:51:22.902Z,100455.63
2022-11-06T12:56:39.040Z,100440.66
2022-11-06T13:01:43.565Z,100437.03
2022-11-06T13:07:20.446Z,100426.59
2022-11-06T13:12:25.168Z,100416.81
2022-11-06T13:18:00.202Z,100437.06
2022-11-06T13:23:33.751Z,100421.69
2022-11-06T13:28:44.067Z,100425.59
2022-11-06T13:33:55.923Z,100420.53
2022-11-06T13:39:07.700Z,100404.91
2022-11-06T13:44:12.729Z,100415.28
2022-11-06T13:49:24.956Z,100384.47
2022-11-06T13:54:56.526Z,100384.78
2022-11-06T14:00:21.275Z,100394.13
2022-11-06T14:05:48.583Z,100376.75
2022-11-06T14:11:01.103Z,100364.63
2022-11-06T14:16:14.577Z,100386.88
2022-11-06T14:21:37.956Z,100390.28
2022-11-06T14:26:50.115Z,100387.09
2022-11-06T14:32:09.933Z,100377.97
2022-11-06T14:37:30.734Z,100359.72
2022-11-06T14:42:37.964Z,100374.94
2022-11-06T14:47:48.271Z,100391.94
2022-11-06T14:52:54.155Z,100395.97
2022-11-06T14:58:01.521Z,100381.81
2022-11-06T15:03:06.439Z,100371.88
2022-11-06T15:08:08.018Z,100382.22
2022-11-06T15:13:18.904Z,100394.09
2022-11-06T15:18:22.619Z,100374.66
2022-11-06T15:23:30.797Z,100380.94
2022-11-06T15:28:47.406Z,100384.44
2022-11-06T15:34:02.995Z,100376.56
2022-11-06T15:39:37.954Z,100400.06
2022-11-06T15:44:44.835Z,100387.72
2022-11-06T15:49:46.370Z,100388.09
2022-11-06T15:54:56.851Z,100385.84
2022-11-06T16:00:10.242Z,100377.38
2022-11-06T16:05:11.903Z,100372.78
2022-11-06T16:10:18.918Z,100377.53
2022-11-06T16:15:42.293Z,100362.13
2022-11-06T16:20:50.160Z,100338.13
2022-11-06T16:26:04.335Z,100312.78
2022-11-06T16:31:11.614Z,100296.63
2022-11-06T16:36:14.428Z,100284.41
2022-11-06T16:41:18.058Z,100264.41
2022-11-06T16:46:19.673Z,100258.34
2022-11-06T16:51:32.331Z,100237.72
2022-11-06T16:56:35.082Z,100237.28
2022-11-06T17:01:43.011Z,100266.53
2022-11-06T17:06:45.008Z,100293.94
2022-11-06T17:11:46.599Z,100291.31
2022-11-06T17:16:59.351Z,100282.94
2022-11-06T17:22:00.869Z,100281.50
2022-11-06T17:27:02.484Z,100289.44
2022-11-06T17:32:04.659Z,100287.44
2022-11-06T17:37:06.363Z,100284.38
2022-11-06T17:42:07.889Z,100271.22
2022-11-06T17:47:09.551Z,100257.69
2022-11-06T17:52:11.178Z,100258.38
2022-11-06T17:57:16.475Z,100248.13
2022-11-06T18:02:35.227Z,100245.09
2022-11-06T18:07:42.966Z,100235.25
2022-11-06T18:12:44.487Z,100220.78
2022-11-06T18:17:46.075Z,100218.19
2022-11-06T18:22:47.646Z,100219.44
2022-11-06T18:27:49.225Z,100215.63
2022-11-06T18:32:50.765Z,100231.28
2022-11-06T18:37:52.395Z,100242.41
2022-11-06T18:42:54.183Z,100243.88
2022-11-06T18:47:55.990Z,100242.03
2022-11-06T18:52:58.561Z,100236.94
2022-11-06T18:58:00.343Z,100237.31
2022-11-06T19:03:01.934Z,100238.31
2022-11-06T19:08:03.589Z,100248.97
2022-11-06T19:13:05.230Z,100246.38
2022-11-06T19:18:06.850Z,100258.09
2022-11-06T19:23:12.603Z,100265.34
2022-11-06T19:28:14.448Z,100275.31
2022-11-06T19:33:16.689Z,100278.78
2022-11-06T19:38:19.603Z,100264.25
2022-11-06T19:43:21.157Z,100263.25
2022-11-06T19:48:23.183Z,100280.44
2022-11-06T19:53:25.217Z,100275.16
2022-11-06T19:58:26.798Z,100273.94
2022-11-06T20:03:28.307Z,100261.66
2022-11-06T20:08:29.897Z,100275.81
2022-11-06T20:13:31.633Z,100283.47
2022-11-06T20:18:33.780Z,100292.34
2022-11-06T20:23:36.301Z,100285.84
2022-11-06T20:28:38.008Z,100278.22
2022-11-06T20:33:39.810Z,100286.91
2022-11-06T20:38:41.939Z,100301.44
2022-11-06T20:43:43.855Z,100322.41
2022-11-06T20:48:46.020Z,100327.50
2022-11-06T20:53:48.249Z,100335.38
2022-11-06T20:58:49.842Z,100341.44
2022-11-06T21:03:51.868Z,100343.06
2022-11-06T21:08:53.986Z,100349.34
2022-11-06T21:13:56.091Z,100365.91
2022-11-06T21:18:59.559Z,100370.28
2022-11-06T21:24:02.128Z,100387.06
2022-11-06T21:29:06.473Z,100394.94
2022-11-06T21:34:08.050Z,100397.84
2022-11-06T21:39:15.146Z,100411.34
2022-11-06T21:44:18.014Z,100414.75
2022-11-06T21:49:19.605Z,100415.81
2022-11-06T21:54:21.254Z,100424.94
2022-11-06T21:59:25.902Z,100434.63
2022-11-06T22:04:27.573Z,100442.91
2022-11-06T22:09:29.148Z,100448.56
2022-11-06T22:14:30.785Z,100437.63
2022-11-06T22:19:32.344Z,100436.63
2022-11-06T22:24:33.879Z,100439.28
2022-11-06T22:29:35.436Z,100442.69
2022-11-06T22:34:37.194Z,100443.69
2022-11-06T22:39:38.847Z,100444.09
2022-11-06T22:44:40.557Z,100432.13
2022-11-06T22:49:42.402Z,100434.47
2022-11-06T22:54:43.925Z,100435.19
2022-11-06T22:59:45.542Z,100431.91
2022-11-06T23:04:47.108Z,100426.19
2022-11-06T23:09:48.659Z,100425.47
2022-11-06T23:14:50.206Z,100427.53
2022-11-06T23:19:51.871Z,100429.88
2022-11-06T23:24:53.420Z,100443.41
2022-11-06T23:29:54.919Z,100454.97
2022-11-06T23:34:56.962Z,100457.59
2022-11-06T23:39:58.590Z,100453.13
2022-11-06T23:45:00.471Z,100457.53
2022-11-06T23:50:03.296Z,100454.16
2022-11-06T23:55:05.378Z,100463.88
